sensor_id;sensor_type;location;lat;lon;timestamp;P1;durP1;ratioP1;P2;durP2;ratioP2
20177;SDS011;10248;51.218;20.866;2022-10-16T00:01:43;3.20;;;3.10;;
20177;SDS011;10248;51.218;20.866;2022-10-16T00:04:11;3.17;;;3.08;;
20177;SDS011;10248;51.218;20.866;2022-10-16T00:06:40;3.10;;;3.00;;
20177;SDS011;10248;51.218;20.866;2022-10-16T00:09:08;3.38;;;3.28;;
20177;SDS011;10248;51.218;20.866;2022-10-16T00:11:38;3.13;;;3.03;;
20177;SDS011;10248;51.218;20.866;2022-10-16T00:14:07;3.35;;;3.25;;
20177;SDS011;10248;51.218;20.866;2022-10-16T00:16:35;2.97;;;2.88;;
20177;SDS011;10248;51.218;20.866;2022-10-16T00:19:03;3.25;;;3.15;;
20177;SDS011;10248;51.218;20.866;2022-10-16T00:21:31;3.58;;;3.47;;
20177;SDS011;10248;51.218;20.866;2022-10-16T00:23:59;3.38;;;3.28;;
20177;SDS011;10248;51.218;20.866;2022-10-16T00:26:27;3.40;;;3.30;;
20177;SDS011;10248;51.218;20.866;2022-10-16T00:28:57;3.38;;;3.28;;
20177;SDS011;10248;51.218;20.866;2022-10-16T00:31:25;3.42;;;3.33;;
20177;SDS011;10248;51.218;20.866;2022-10-16T00:33:53;3.25;;;3.15;;
20177;SDS011;10248;51.218;20.866;2022-10-16T00:36:21;3.40;;;3.30;;
20177;SDS011;10248;51.218;20.866;2022-10-16T00:38:50;3.28;;;3.17;;
20177;SDS011;10248;51.218;20.866;2022-10-16T00:41:19;3.42;;;3.33;;
20177;SDS011;10248;51.218;20.866;2022-10-16T00:43:47;3.30;;;3.20;;
20177;SDS011;10248;51.218;20.866;2022-10-16T00:46:17;3.38;;;3.28;;
20177;SDS011;10248;51.218;20.866;2022-10-16T00:48:47;3.42;;;3.33;;
20177;SDS011;10248;51.218;20.866;2022-10-16T00:51:18;3.50;;;3.40;;
20177;SDS011;10248;51.218;20.866;2022-10-16T00:53:46;3.13;;;3.03;;
20177;SDS011;10248;51.218;20.866;2022-10-16T00:56:14;3.30;;;3.20;;
20177;SDS011;10248;51.218;20.866;2022-10-16T00:58:42;3.45;;;3.35;;
20177;SDS011;10248;51.218;20.866;2022-10-16T01:01:10;3.40;;;3.30;;
20177;SDS011;10248;51.218;20.866;2022-10-16T01:03:40;3.13;;;3.03;;
20177;SDS011;10248;51.218;20.866;2022-10-16T01:08:59;3.33;;;3.22;;
20177;SDS011;10248;51.218;20.866;2022-10-16T01:11:31;3.47;;;3.38;;
20177;SDS011;10248;51.218;20.866;2022-10-16T01:14:02;3.20;;;3.10;;
20177;SDS011;10248;51.218;20.866;2022-10-16T01:16:34;3.30;;;3.20;;
20177;SDS011;10248;51.218;20.866;2022-10-16T01:19:08;3.33;;;3.22;;
20177;SDS011;10248;51.218;20.866;2022-10-16T01:21:38;3.00;;;2.90;;
20177;SDS011;10248;51.218;20.866;2022-10-16T01:24:12;3.20;;;3.10;;
20177;SDS011;10248;51.218;20.866;2022-10-16T01:29:35;2.97;;;2.88;;
20177;SDS011;10248;51.218;20.866;2022-10-16T01:32:09;2.90;;;2.80;;
20177;SDS011;10248;51.218;20.866;2022-10-16T01:34:38;3.35;;;3.25;;
20177;SDS011;10248;51.218;20.866;2022-10-16T01:37:09;3.15;;;3.05;;
20177;SDS011;10248;51.218;20.866;2022-10-16T01:39:39;3.10;;;3.00;;
20177;SDS011;10248;51.218;20.866;2022-10-16T01:42:09;3.30;;;3.20;;
20177;SDS011;10248;51.218;20.866;2022-10-16T01:44:40;3.30;;;3.20;;
20177;SDS011;10248;51.218;20.866;2022-10-16T01:47:08;3.38;;;3.28;;
20177;SDS011;10248;51.218;20.866;2022-10-16T01:49:38;3.25;;;3.15;;
20177;SDS011;10248;51.218;20.866;2022-10-16T01:52:09;3.08;;;2.97;;
20177;SDS011;10248;51.218;20.866;2022-10-16T01:54:38;3.22;;;3.13;;
20177;SDS011;10248;51.218;20.866;2022-10-16T01:57:08;3.50;;;3.40;;
20177;SDS011;10248;51.218;20.866;2022-10-16T01:59:38;3.10;;;3.00;;
20177;SDS011;10248;51.218;20.866;2022-10-16T02:02:09;3.20;;;3.10;;
20177;SDS011;10248;51.218;20.866;2022-10-16T02:04:38;3.33;;;3.22;;
20177;SDS011;10248;51.218;20.866;2022-10-16T02:07:06;3.30;;;3.20;;
20177;SDS011;10248;51.218;20.866;2022-10-16T02:09:34;3.15;;;3.05;;
20177;SDS011;10248;51.218;20.866;2022-10-16T02:12:03;3.20;;;3.10;;
20177;SDS011;10248;51.218;20.866;2022-10-16T02:14:32;3.35;;;3.25;;
20177;SDS011;10248;51.218;20.866;2022-10-16T02:17:00;3.42;;;3.33;;
20177;SDS011;10248;51.218;20.866;2022-10-16T02:19:30;3.00;;;2.90;;
20177;SDS011;10248;51.218;20.866;2022-10-16T02:21:59;3.60;;;3.50;;
20177;SDS011;10248;51.218;20.866;2022-10-16T02:24:28;3.30;;;3.20;;
20177;SDS011;10248;51.218;20.866;2022-10-16T02:27:00;3.10;;;3.00;;
20177;SDS011;10248;51.218;20.866;2022-10-16T02:29:31;3.42;;;3.33;;
20177;SDS011;10248;51.218;20.866;2022-10-16T02:32:01;3.22;;;3.13;;
20177;SDS011;10248;51.218;20.866;2022-10-16T02:34:31;3.35;;;3.25;;
20177;SDS011;10248;51.218;20.866;2022-10-16T02:37:02;3.45;;;3.35;;
20177;SDS011;10248;51.218;20.866;2022-10-16T02:39:30;3.33;;;3.22;;
20177;SDS011;10248;51.218;20.866;2022-10-16T02:41:58;3.70;;;3.60;;
20177;SDS011;10248;51.218;20.866;2022-10-16T02:44:26;3.40;;;3.30;;
20177;SDS011;10248;51.218;20.866;2022-10-16T02:46:54;3.38;;;3.28;;
20177;SDS011;10248;51.218;20.866;2022-10-16T02:49:21;3.42;;;3.33;;
20177;SDS011;10248;51.218;20.866;2022-10-16T02:51:51;3.30;;;3.20;;
20177;SDS011;10248;51.218;20.866;2022-10-16T02:54:19;3.60;;;3.50;;
20177;SDS011;10248;51.218;20.866;2022-10-16T02:56:46;3.35;;;3.25;;
20177;SDS011;10248;51.218;20.866;2022-10-16T02:59:14;3.50;;;3.40;;
20177;SDS011;10248;51.218;20.866;2022-10-16T03:01:42;3.47;;;3.38;;
20177;SDS011;10248;51.218;20.866;2022-10-16T03:04:10;3.55;;;3.45;;
20177;SDS011;10248;51.218;20.866;2022-10-16T03:06:38;3.50;;;3.40;;
20177;SDS011;10248;51.218;20.866;2022-10-16T03:09:07;3.40;;;3.30;;
20177;SDS011;10248;51.218;20.866;2022-10-16T03:11:35;3.50;;;3.40;;
20177;SDS011;10248;51.218;20.866;2022-10-16T03:14:03;3.33;;;3.22;;
20177;SDS011;10248;51.218;20.866;2022-10-16T03:16:31;3.40;;;3.30;;
20177;SDS011;10248;51.218;20.866;2022-10-16T03:18:59;3.40;;;3.30;;
20177;SDS011;10248;51.218;20.866;2022-10-16T03:21:27;3.33;;;3.22;;
20177;SDS011;10248;51.218;20.866;2022-10-16T03:23:55;3.40;;;3.30;;
20177;SDS011;10248;51.218;20.866;2022-10-16T03:26:24;3.40;;;3.30;;
20177;SDS011;10248;51.218;20.866;2022-10-16T03:28:53;3.20;;;3.10;;
20177;SDS011;10248;51.218;20.866;2022-10-16T03:31:23;3.10;;;3.00;;
20177;SDS011;10248;51.218;20.866;2022-10-16T03:33:51;3.00;;;2.90;;
20177;SDS011;10248;51.218;20.866;2022-10-16T03:36:18;3.28;;;3.17;;
20177;SDS011;10248;51.218;20.866;2022-10-16T03:38:46;3.40;;;3.30;;
20177;SDS011;10248;51.218;20.866;2022-10-16T03:41:14;3.30;;;3.20;;
20177;SDS011;10248;51.218;20.866;2022-10-16T03:43:44;3.30;;;3.20;;
20177;SDS011;10248;51.218;20.866;2022-10-16T03:46:11;3.30;;;3.20;;
20177;SDS011;10248;51.218;20.866;2022-10-16T03:48:39;3.42;;;3.33;;
20177;SDS011;10248;51.218;20.866;2022-10-16T03:51:07;3.30;;;3.20;;
20177;SDS011;10248;51.218;20.866;2022-10-16T03:53:35;2.90;;;2.80;;
20177;SDS011;10248;51.218;20.866;2022-10-16T03:56:02;3.20;;;3.10;;
20177;SDS011;10248;51.218;20.866;2022-10-16T03:58:30;3.30;;;3.20;;
20177;SDS011;10248;51.218;20.866;2022-10-16T04:01:00;3.10;;;3.00;;
20177;SDS011;10248;51.218;20.866;2022-10-16T04:03:28;3.03;;;2.92;;
20177;SDS011;10248;51.218;20.866;2022-10-16T04:05:56;3.40;;;3.30;;
20177;SDS011;10248;51.218;20.866;2022-10-16T04:08:23;3.30;;;3.20;;
20177;SDS011;10248;51.218;20.866;2022-10-16T04:10:51;3.25;;;3.15;;
20177;SDS011;10248;51.218;20.866;2022-10-16T04:13:19;3.20;;;3.10;;
20177;SDS011;10248;51.218;20.866;2022-10-16T04:15:47;3.30;;;3.20;;
20177;SDS011;10248;51.218;20.866;2022-10-16T04:18:16;3.50;;;3.40;;
20177;SDS011;10248;51.218;20.866;2022-10-16T04:20:44;3.10;;;3.00;;
20177;SDS011;10248;51.218;20.866;2022-10-16T04:23:12;3.30;;;3.20;;
20177;SDS011;10248;51.218;20.866;2022-10-16T04:25:40;3.35;;;3.25;;
20177;SDS011;10248;51.218;20.866;2022-10-16T04:28:09;2.85;;;2.75;;
20177;SDS011;10248;51.218;20.866;2022-10-16T04:30:37;3.20;;;3.10;;
20177;SDS011;10248;51.218;20.866;2022-10-16T04:33:05;3.10;;;3.00;;
20177;SDS011;10248;51.218;20.866;2022-10-16T04:35:34;3.25;;;3.15;;
20177;SDS011;10248;51.218;20.866;2022-10-16T04:38:02;3.10;;;3.00;;
20177;SDS011;10248;51.218;20.866;2022-10-16T04:40:30;3.20;;;3.10;;
20177;SDS011;10248;51.218;20.866;2022-10-16T04:42:59;2.75;;;2.65;;
20177;SDS011;10248;51.218;20.866;2022-10-16T04:45:27;3.33;;;3.22;;
20177;SDS011;10248;51.218;20.866;2022-10-16T04:47:56;3.20;;;3.10;;
20177;SDS011;10248;51.218;20.866;2022-10-16T04:50:24;3.13;;;3.03;;
20177;SDS011;10248;51.218;20.866;2022-10-16T04:52:53;3.15;;;3.05;;
20177;SDS011;10248;51.218;20.866;2022-10-16T04:55:21;3.40;;;3.30;;
20177;SDS011;10248;51.218;20.866;2022-10-16T04:57:49;3.20;;;3.10;;
20177;SDS011;10248;51.218;20.866;2022-10-16T05:00:17;3.00;;;2.90;;
20177;SDS011;10248;51.218;20.866;2022-10-16T05:02:44;3.05;;;2.95;;
20177;SDS011;10248;51.218;20.866;2022-10-16T05:05:12;3.20;;;3.10;;
20177;SDS011;10248;51.218;20.866;2022-10-16T05:07:40;3.00;;;2.90;;
20177;SDS011;10248;51.218;20.866;2022-10-16T05:10:10;3.10;;;3.00;;
20177;SDS011;10248;51.218;20.866;2022-10-16T05:12:37;3.25;;;3.15;;
20177;SDS011;10248;51.218;20.866;2022-10-16T05:15:05;3.50;;;3.40;;
20177;SDS011;10248;51.218;20.866;2022-10-16T05:17:33;3.50;;;3.40;;
20177;SDS011;10248;51.218;20.866;2022-10-16T05:20:05;2.88;;;2.78;;
20177;SDS011;10248;51.218;20.866;2022-10-16T05:22:33;3.40;;;3.30;;
20177;SDS011;10248;51.218;20.866;2022-10-16T05:25:01;3.28;;;3.17;;
20177;SDS011;10248;51.218;20.866;2022-10-16T05:27:30;3.35;;;3.25;;
20177;SDS011;10248;51.218;20.866;2022-10-16T05:29:58;3.40;;;3.30;;
20177;SDS011;10248;51.218;20.866;2022-10-16T05:32:26;3.00;;;2.90;;
20177;SDS011;10248;51.218;20.866;2022-10-16T05:34:53;3.13;;;3.03;;
20177;SDS011;10248;51.218;20.866;2022-10-16T05:37:21;3.42;;;3.33;;
20177;SDS011;10248;51.218;20.866;2022-10-16T05:39:49;3.30;;;3.20;;
20177;SDS011;10248;51.218;20.866;2022-10-16T05:42:17;3.13;;;3.03;;
20177;SDS011;10248;51.218;20.866;2022-10-16T05:44:46;3.28;;;3.17;;
20177;SDS011;10248;51.218;20.866;2022-10-16T05:47:14;3.45;;;3.35;;
20177;SDS011;10248;51.218;20.866;2022-10-16T05:49:41;3.33;;;3.22;;
20177;SDS011;10248;51.218;20.866;2022-10-16T05:52:12;3.22;;;3.13;;
20177;SDS011;10248;51.218;20.866;2022-10-16T05:54:40;3.28;;;3.17;;
20177;SDS011;10248;51.218;20.866;2022-10-16T05:57:09;3.17;;;3.08;;
20177;SDS011;10248;51.218;20.866;2022-10-16T05:59:37;3.60;;;3.50;;
20177;SDS011;10248;51.218;20.866;2022-10-16T06:02:10;3.40;;;3.30;;
20177;SDS011;10248;51.218;20.866;2022-10-16T06:04:41;3.40;;;3.30;;
20177;SDS011;10248;51.218;20.866;2022-10-16T06:07:09;3.28;;;3.17;;
20177;SDS011;10248;51.218;20.866;2022-10-16T06:09:38;3.30;;;3.20;;
20177;SDS011;10248;51.218;20.866;2022-10-16T06:12:08;3.08;;;2.97;;
20177;SDS011;10248;51.218;20.866;2022-10-16T06:14:36;3.22;;;3.13;;
20177;SDS011;10248;51.218;20.866;2022-10-16T06:17:06;3.22;;;3.13;;
20177;SDS011;10248;51.218;20.866;2022-10-16T06:19:39;3.10;;;3.00;;
20177;SDS011;10248;51.218;20.866;2022-10-16T06:22:12;3.30;;;3.20;;
20177;SDS011;10248;51.218;20.866;2022-10-16T06:24:45;3.30;;;3.20;;
20177;SDS011;10248;51.218;20.866;2022-10-16T06:27:13;3.40;;;3.30;;
20177;SDS011;10248;51.218;20.866;2022-10-16T06:29:41;3.17;;;3.08;;
20177;SDS011;10248;51.218;20.866;2022-10-16T06:32:11;3.28;;;3.17;;
20177;SDS011;10248;51.218;20.866;2022-10-16T06:34:40;3.35;;;3.25;;
20177;SDS011;10248;51.218;20.866;2022-10-16T06:37:09;3.05;;;2.95;;
20177;SDS011;10248;51.218;20.866;2022-10-16T06:39:37;3.25;;;3.15;;
20177;SDS011;10248;51.218;20.866;2022-10-16T06:42:05;3.30;;;3.20;;
20177;SDS011;10248;51.218;20.866;2022-10-16T06:44:33;3.42;;;3.33;;
20177;SDS011;10248;51.218;20.866;2022-10-16T06:47:01;3.40;;;3.30;;
20177;SDS011;10248;51.218;20.866;2022-10-16T06:49:30;3.55;;;3.45;;
20177;SDS011;10248;51.218;20.866;2022-10-16T06:52:00;3.13;;;3.03;;
20177;SDS011;10248;51.218;20.866;2022-10-16T06:54:28;3.30;;;3.20;;
20177;SDS011;10248;51.218;20.866;2022-10-16T06:57:05;3.22;;;3.13;;
20177;SDS011;10248;51.218;20.866;2022-10-16T06:59:34;3.17;;;3.08;;
20177;SDS011;10248;51.218;20.866;2022-10-16T07:02:05;3.30;;;3.20;;
20177;SDS011;10248;51.218;20.866;2022-10-16T07:04:36;3.50;;;3.40;;
20177;SDS011;10248;51.218;20.866;2022-10-16T07:07:24;3.47;;;3.38;;
20177;SDS011;10248;51.218;20.866;2022-10-16T07:09:56;3.55;;;3.45;;
20177;SDS011;10248;51.218;20.866;2022-10-16T07:12:38;3.50;;;3.40;;
20177;SDS011;10248;51.218;20.866;2022-10-16T07:15:25;3.38;;;3.28;;
20177;SDS011;10248;51.218;20.866;2022-10-16T07:17:53;3.47;;;3.38;;
20177;SDS011;10248;51.218;20.866;2022-10-16T07:20:20;3.58;;;3.47;;
20177;SDS011;10248;51.218;20.866;2022-10-16T07:22:50;3.53;;;3.42;;
20177;SDS011;10248;51.218;20.866;2022-10-16T07:25:17;4.00;;;3.90;;
20177;SDS011;10248;51.218;20.866;2022-10-16T07:27:45;3.95;;;3.85;;
20177;SDS011;10248;51.218;20.866;2022-10-16T07:30:13;3.60;;;3.50;;
20177;SDS011;10248;51.218;20.866;2022-10-16T07:32:41;3.40;;;3.30;;
20177;SDS011;10248;51.218;20.866;2022-10-16T07:35:09;3.70;;;3.60;;
20177;SDS011;10248;51.218;20.866;2022-10-16T07:37:37;3.83;;;3.72;;
20177;SDS011;10248;51.218;20.866;2022-10-16T07:40:07;3.40;;;3.30;;
20177;SDS011;10248;51.218;20.866;2022-10-16T07:42:35;3.20;;;3.10;;
20177;SDS011;10248;51.218;20.866;2022-10-16T07:45:04;3.17;;;3.08;;
20177;SDS011;10248;51.218;20.866;2022-10-16T07:47:35;3.70;;;3.60;;
20177;SDS011;10248;51.218;20.866;2022-10-16T07:50:04;3.70;;;3.60;;
20177;SDS011;10248;51.218;20.866;2022-10-16T07:52:51;3.65;;;3.55;;
20177;SDS011;10248;51.218;20.866;2022-10-16T07:55:24;3.70;;;3.60;;
20177;SDS011;10248;51.218;20.866;2022-10-16T07:57:54;3.47;;;3.38;;
20177;SDS011;10248;51.218;20.866;2022-10-16T08:00:22;3.50;;;3.40;;
20177;SDS011;10248;51.218;20.866;2022-10-16T08:02:50;3.60;;;3.50;;
20177;SDS011;10248;51.218;20.866;2022-10-16T08:05:23;3.78;;;3.67;;
20177;SDS011;10248;51.218;20.866;2022-10-16T08:07:50;3.47;;;3.38;;
20177;SDS011;10248;51.218;20.866;2022-10-16T08:10:18;3.60;;;3.50;;
20177;SDS011;10248;51.218;20.866;2022-10-16T08:12:49;3.63;;;3.53;;
20177;SDS011;10248;51.218;20.866;2022-10-16T08:15:17;3.60;;;3.50;;
20177;SDS011;10248;51.218;20.866;2022-10-16T08:17:53;3.70;;;3.60;;
20177;SDS011;10248;51.218;20.866;2022-10-16T08:20:21;3.60;;;3.50;;
20177;SDS011;10248;51.218;20.866;2022-10-16T08:22:48;3.60;;;3.50;;
20177;SDS011;10248;51.218;20.866;2022-10-16T08:25:16;3.38;;;3.28;;
20177;SDS011;10248;51.218;20.866;2022-10-16T08:27:44;3.30;;;3.20;;
20177;SDS011;10248;51.218;20.866;2022-10-16T08:30:13;3.50;;;3.40;;
20177;SDS011;10248;51.218;20.866;2022-10-16T08:32:41;3.25;;;3.15;;
20177;SDS011;10248;51.218;20.866;2022-10-16T08:35:11;3.33;;;3.22;;
20177;SDS011;10248;51.218;20.866;2022-10-16T08:37:41;3.63;;;3.53;;
20177;SDS011;10248;51.218;20.866;2022-10-16T08:40:13;3.40;;;3.30;;
20177;SDS011;10248;51.218;20.866;2022-10-16T08:42:46;3.65;;;3.55;;
20177;SDS011;10248;51.218;20.866;2022-10-16T08:45:23;3.70;;;3.60;;
20177;SDS011;10248;51.218;20.866;2022-10-16T08:47:56;3.67;;;3.58;;
20177;SDS011;10248;51.218;20.866;2022-10-16T08:50:27;3.47;;;3.38;;
20177;SDS011;10248;51.218;20.866;2022-10-16T08:52:59;3.70;;;3.60;;
20177;SDS011;10248;51.218;20.866;2022-10-16T08:55:31;3.60;;;3.50;;
20177;SDS011;10248;51.218;20.866;2022-10-16T08:58:00;3.55;;;3.45;;
20177;SDS011;10248;51.218;20.866;2022-10-16T09:00:30;3.50;;;3.40;;
20177;SDS011;10248;51.218;20.866;2022-10-16T09:03:00;3.40;;;3.30;;
20177;SDS011;10248;51.218;20.866;2022-10-16T09:05:38;3.45;;;3.35;;
20177;SDS011;10248;51.218;20.866;2022-10-16T09:08:14;3.47;;;3.38;;
20177;SDS011;10248;51.218;20.866;2022-10-16T09:10:49;3.40;;;3.30;;
20177;SDS011;10248;51.218;20.866;2022-10-16T09:13:33;3.90;;;3.80;;
20177;SDS011;10248;51.218;20.866;2022-10-16T09:16:23;3.70;;;3.60;;
20177;SDS011;10248;51.218;20.866;2022-10-16T09:18:54;3.90;;;3.80;;
20177;SDS011;10248;51.218;20.866;2022-10-16T09:21:23;3.80;;;3.70;;
20177;SDS011;10248;51.218;20.866;2022-10-16T09:23:57;3.80;;;3.70;;
20177;SDS011;10248;51.218;20.866;2022-10-16T09:26:25;3.72;;;3.63;;
20177;SDS011;10248;51.218;20.866;2022-10-16T09:28:53;3.70;;;3.60;;
20177;SDS011;10248;51.218;20.866;2022-10-16T09:31:22;3.65;;;3.55;;
20177;SDS011;10248;51.218;20.866;2022-10-16T09:33:52;3.63;;;3.53;;
20177;SDS011;10248;51.218;20.866;2022-10-16T09:36:20;3.80;;;3.70;;
20177;SDS011;10248;51.218;20.866;2022-10-16T09:38:48;3.67;;;3.58;;
20177;SDS011;10248;51.218;20.866;2022-10-16T09:41:17;3.80;;;3.70;;
20177;SDS011;10248;51.218;20.866;2022-10-16T09:43:47;3.50;;;3.40;;
20177;SDS011;10248;51.218;20.866;2022-10-16T09:46:24;3.65;;;3.55;;
20177;SDS011;10248;51.218;20.866;2022-10-16T09:48:53;3.80;;;3.70;;
20177;SDS011;10248;51.218;20.866;2022-10-16T09:51:23;3.70;;;3.60;;
20177;SDS011;10248;51.218;20.866;2022-10-16T09:53:54;3.80;;;3.70;;
20177;SDS011;10248;51.218;20.866;2022-10-16T09:56:22;3.63;;;3.53;;
20177;SDS011;10248;51.218;20.866;2022-10-16T09:59:14;3.58;;;3.47;;
20177;SDS011;10248;51.218;20.866;2022-10-16T10:01:46;3.92;;;3.83;;
20177;SDS011;10248;51.218;20.866;2022-10-16T10:04:14;3.90;;;3.80;;
20177;SDS011;10248;51.218;20.866;2022-10-16T10:06:43;3.90;;;3.80;;
20177;SDS011;10248;51.218;20.866;2022-10-16T10:09:16;3.85;;;3.75;;
20177;SDS011;10248;51.218;20.866;2022-10-16T10:11:46;3.70;;;3.60;;
20177;SDS011;10248;51.218;20.866;2022-10-16T10:14:20;3.83;;;3.72;;
20177;SDS011;10248;51.218;20.866;2022-10-16T10:16:49;3.65;;;3.55;;
20177;SDS011;10248;51.218;20.866;2022-10-16T10:19:18;3.53;;;3.42;;
20177;SDS011;10248;51.218;20.866;2022-10-16T10:21:46;3.80;;;3.70;;
20177;SDS011;10248;51.218;20.866;2022-10-16T10:24:15;3.50;;;3.40;;
20177;SDS011;10248;51.218;20.866;2022-10-16T10:26:47;3.60;;;3.50;;
20177;SDS011;10248;51.218;20.866;2022-10-16T10:29:17;3.50;;;3.40;;
20177;SDS011;10248;51.218;20.866;2022-10-16T10:31:51;3.70;;;3.60;;
20177;SDS011;10248;51.218;20.866;2022-10-16T10:34:28;3.70;;;3.60;;
20177;SDS011;10248;51.218;20.866;2022-10-16T10:37:01;3.90;;;3.80;;
20177;SDS011;10248;51.218;20.866;2022-10-16T10:39:32;4.20;;;4.10;;
20177;SDS011;10248;51.218;20.866;2022-10-16T10:42:08;3.90;;;3.80;;
20177;SDS011;10248;51.218;20.866;2022-10-16T10:45:00;3.90;;;3.80;;
20177;SDS011;10248;51.218;20.866;2022-10-16T10:47:37;3.72;;;3.63;;
20177;SDS011;10248;51.218;20.866;2022-10-16T10:50:10;3.90;;;3.80;;
20177;SDS011;10248;51.218;20.866;2022-10-16T10:52:43;3.70;;;3.60;;
20177;SDS011;10248;51.218;20.866;2022-10-16T10:55:19;3.75;;;3.65;;
20177;SDS011;10248;51.218;20.866;2022-10-16T10:57:52;3.95;;;3.85;;
20177;SDS011;10248;51.218;20.866;2022-10-16T11:00:23;3.80;;;3.70;;
20177;SDS011;10248;51.218;20.866;2022-10-16T11:02:58;3.90;;;3.80;;
20177;SDS011;10248;51.218;20.866;2022-10-16T11:05:31;4.03;;;3.92;;
20177;SDS011;10248;51.218;20.866;2022-10-16T11:08:02;4.00;;;3.90;;
20177;SDS011;10248;51.218;20.866;2022-10-16T11:10:33;4.00;;;3.90;;
20177;SDS011;10248;51.218;20.866;2022-10-16T11:15:32;3.85;;;3.75;;
20177;SDS011;10248;51.218;20.866;2022-10-16T11:18:04;3.70;;;3.60;;
20177;SDS011;10248;51.218;20.866;2022-10-16T11:20:34;4.10;;;4.00;;
20177;SDS011;10248;51.218;20.866;2022-10-16T11:23:02;3.80;;;3.70;;
20177;SDS011;10248;51.218;20.866;2022-10-16T11:25:35;4.00;;;3.90;;
20177;SDS011;10248;51.218;20.866;2022-10-16T11:28:07;4.20;;;4.10;;
20177;SDS011;10248;51.218;20.866;2022-10-16T11:30:43;4.10;;;4.00;;
20177;SDS011;10248;51.218;20.866;2022-10-16T11:33:27;4.10;;;4.00;;
20177;SDS011;10248;51.218;20.866;2022-10-16T11:36:00;4.10;;;4.00;;
20177;SDS011;10248;51.218;20.866;2022-10-16T11:38:30;3.92;;;3.83;;
20177;SDS011;10248;51.218;20.866;2022-10-16T11:41:01;4.10;;;4.00;;
20177;SDS011;10248;51.218;20.866;2022-10-16T11:43:32;3.90;;;3.80;;
20177;SDS011;10248;51.218;20.866;2022-10-16T11:46:04;3.90;;;3.80;;
20177;SDS011;10248;51.218;20.866;2022-10-16T11:48:42;3.90;;;3.80;;
20177;SDS011;10248;51.218;20.866;2022-10-16T11:51:14;3.80;;;3.70;;
20177;SDS011;10248;51.218;20.866;2022-10-16T11:53:45;3.80;;;3.70;;
20177;SDS011;10248;51.218;20.866;2022-10-16T11:56:13;4.00;;;3.90;;
20177;SDS011;10248;51.218;20.866;2022-10-16T11:58:45;3.90;;;3.80;;
20177;SDS011;10248;51.218;20.866;2022-10-16T12:01:19;3.80;;;3.70;;
20177;SDS011;10248;51.218;20.866;2022-10-16T12:03:55;3.80;;;3.70;;
20177;SDS011;10248;51.218;20.866;2022-10-16T12:06:27;4.00;;;3.90;;
20177;SDS011;10248;51.218;20.866;2022-10-16T12:08:58;3.80;;;3.70;;
20177;SDS011;10248;51.218;20.866;2022-10-16T12:11:33;3.90;;;3.80;;
20177;SDS011;10248;51.218;20.866;2022-10-16T12:14:06;3.88;;;3.78;;
20177;SDS011;10248;51.218;20.866;2022-10-16T12:16:36;4.18;;;4.07;;
20177;SDS011;10248;51.218;20.866;2022-10-16T12:19:13;3.83;;;3.72;;
20177;SDS011;10248;51.218;20.866;2022-10-16T12:21:41;3.80;;;3.70;;
20177;SDS011;10248;51.218;20.866;2022-10-16T12:24:19;3.80;;;3.70;;
20177;SDS011;10248;51.218;20.866;2022-10-16T12:26:49;3.80;;;3.70;;
20177;SDS011;10248;51.218;20.866;2022-10-16T12:29:23;3.80;;;3.70;;
20177;SDS011;10248;51.218;20.866;2022-10-16T12:31:56;3.80;;;3.70;;
20177;SDS011;10248;51.218;20.866;2022-10-16T12:34:27;3.70;;;3.60;;
20177;SDS011;10248;51.218;20.866;2022-10-16T12:36:55;3.78;;;3.67;;
20177;SDS011;10248;51.218;20.866;2022-10-16T12:39:24;3.70;;;3.60;;
20177;SDS011;10248;51.218;20.866;2022-10-16T12:44:37;3.50;;;3.40;;
20177;SDS011;10248;51.218;20.866;2022-10-16T12:47:18;3.60;;;3.50;;
20177;SDS011;10248;51.218;20.866;2022-10-16T12:49:49;3.80;;;3.70;;
20177;SDS011;10248;51.218;20.866;2022-10-16T12:52:25;3.70;;;3.60;;
20177;SDS011;10248;51.218;20.866;2022-10-16T12:54:55;3.70;;;3.60;;
20177;SDS011;10248;51.218;20.866;2022-10-16T12:57:29;4.00;;;3.90;;
20177;SDS011;10248;51.218;20.866;2022-10-16T13:00:05;3.78;;;3.67;;
20177;SDS011;10248;51.218;20.866;2022-10-16T13:05:44;3.80;;;3.70;;
20177;SDS011;10248;51.218;20.866;2022-10-16T13:08:24;3.83;;;3.72;;
20177;SDS011;10248;51.218;20.866;2022-10-16T13:10:58;3.90;;;3.80;;
20177;SDS011;10248;51.218;20.866;2022-10-16T13:13:41;3.78;;;3.67;;
20177;SDS011;10248;51.218;20.866;2022-10-16T13:16:15;3.60;;;3.50;;
20177;SDS011;10248;51.218;20.866;2022-10-16T13:18:50;3.78;;;3.67;;
20177;SDS011;10248;51.218;20.866;2022-10-16T13:21:25;3.80;;;3.70;;
20177;SDS011;10248;51.218;20.866;2022-10-16T13:23:57;3.60;;;3.50;;
20177;SDS011;10248;51.218;20.866;2022-10-16T13:26:30;3.50;;;3.40;;
20177;SDS011;10248;51.218;20.866;2022-10-16T13:29:00;3.78;;;3.67;;
20177;SDS011;10248;51.218;20.866;2022-10-16T13:31:28;3.42;;;3.33;;
20177;SDS011;10248;51.218;20.866;2022-10-16T13:33:58;3.80;;;3.70;;
20177;SDS011;10248;51.218;20.866;2022-10-16T13:36:29;3.88;;;3.78;;
20177;SDS011;10248;51.218;20.866;2022-10-16T13:39:03;3.90;;;3.80;;
20177;SDS011;10248;51.218;20.866;2022-10-16T13:41:34;3.83;;;3.72;;
20177;SDS011;10248;51.218;20.866;2022-10-16T13:44:02;3.97;;;3.88;;
20177;SDS011;10248;51.218;20.866;2022-10-16T13:46:30;3.80;;;3.70;;
20177;SDS011;10248;51.218;20.866;2022-10-16T13:49:01;4.00;;;3.90;;
20177;SDS011;10248;51.218;20.866;2022-10-16T13:51:31;3.60;;;3.50;;
20177;SDS011;10248;51.218;20.866;2022-10-16T13:53:59;3.75;;;3.65;;
20177;SDS011;10248;51.218;20.866;2022-10-16T13:56:27;3.75;;;3.65;;
20177;SDS011;10248;51.218;20.866;2022-10-16T13:58:58;3.63;;;3.53;;
20177;SDS011;10248;51.218;20.866;2022-10-16T14:01:27;3.60;;;3.50;;
20177;SDS011;10248;51.218;20.866;2022-10-16T14:04:02;3.88;;;3.78;;
20177;SDS011;10248;51.218;20.866;2022-10-16T14:06:32;3.40;;;3.30;;
20177;SDS011;10248;51.218;20.866;2022-10-16T14:09:02;3.78;;;3.67;;
20177;SDS011;10248;51.218;20.866;2022-10-16T14:14:00;3.60;;;3.50;;
20177;SDS011;10248;51.218;20.866;2022-10-16T14:16:29;3.70;;;3.60;;
20177;SDS011;10248;51.218;20.866;2022-10-16T14:18:57;3.58;;;3.47;;
20177;SDS011;10248;51.218;20.866;2022-10-16T14:21:27;3.70;;;3.60;;
20177;SDS011;10248;51.218;20.866;2022-10-16T14:26:42;3.90;;;3.80;;
20177;SDS011;10248;51.218;20.866;2022-10-16T14:29:17;3.85;;;3.75;;
20177;SDS011;10248;51.218;20.866;2022-10-16T14:31:53;3.70;;;3.60;;
20177;SDS011;10248;51.218;20.866;2022-10-16T14:34:22;3.70;;;3.60;;
20177;SDS011;10248;51.218;20.866;2022-10-16T14:36:50;3.63;;;3.53;;
20177;SDS011;10248;51.218;20.866;2022-10-16T14:39:22;3.50;;;3.40;;
20177;SDS011;10248;51.218;20.866;2022-10-16T14:42:03;3.65;;;3.55;;
20177;SDS011;10248;51.218;20.866;2022-10-16T14:44:38;3.70;;;3.60;;
20177;SDS011;10248;51.218;20.866;2022-10-16T14:47:08;3.70;;;3.60;;
20177;SDS011;10248;51.218;20.866;2022-10-16T14:49:36;3.40;;;3.30;;
20177;SDS011;10248;51.218;20.866;2022-10-16T14:52:05;3.50;;;3.40;;
20177;SDS011;10248;51.218;20.866;2022-10-16T14:54:35;3.72;;;3.63;;
20177;SDS011;10248;51.218;20.866;2022-10-16T14:57:04;3.63;;;3.53;;
20177;SDS011;10248;51.218;20.866;2022-10-16T14:59:35;3.65;;;3.55;;
20177;SDS011;10248;51.218;20.866;2022-10-16T15:02:09;3.35;;;3.25;;
20177;SDS011;10248;51.218;20.866;2022-10-16T15:04:43;3.67;;;3.58;;
20177;SDS011;10248;51.218;20.866;2022-10-16T15:07:10;3.60;;;3.50;;
20177;SDS011;10248;51.218;20.866;2022-10-16T15:09:38;3.40;;;3.30;;
20177;SDS011;10248;51.218;20.866;2022-10-16T15:12:16;3.70;;;3.60;;